sensor_id;sensor_type;location;lat;lon;timestamp;pressure;altitude;pressure_sealevel;temperature
34310;BMP280;61664;48.112;11.662;2022-08-19T00:02:02;95114.25;;;21.63
34310;BMP280;61664;48.112;11.662;2022-08-19T00:04:34;95115.53;;;21.62
34310;BMP280;61664;48.112;11.662;2022-08-19T00:07:07;95116.44;;;21.65
34310;BMP280;61664;48.112;11.662;2022-08-19T00:09:34;95102.84;;;21.65
34310;BMP280;61664;48.112;11.662;2022-08-19T00:12:01;95087.97;;;21.66
34310;BMP280;61664;48.112;11.662;2022-08-19T00:14:29;95090.88;;;21.68
34310;BMP280;61664;48.112;11.662;2022-08-19T00:17:00;95091.25;;;21.64
34310;BMP280;61664;48.112;11.662;2022-08-19T00:19:28;95075.66;;;21.65
34310;BMP280;61664;48.112;11.662;2022-08-19T00:21:55;95073.13;;;21.59
34310;BMP280;61664;48.112;11.662;2022-08-19T00:24:23;95061.00;;;21.60
34310;BMP280;61664;48.112;11.662;2022-08-19T00:26:51;95049.53;;;21.54
34310;BMP280;61664;48.112;11.662;2022-08-19T00:29:21;95049.19;;;21.50
34310;BMP280;61664;48.112;11.662;2022-08-19T00:31:48;95052.78;;;21.45
34310;BMP280;61664;48.112;11.662;2022-08-19T00:34:16;95054.06;;;21.44
34310;BMP280;61664;48.112;11.662;2022-08-19T00:36:44;95047.00;;;21.41
34310;BMP280;61664;48.112;11.662;2022-08-19T00:39:14;95052.78;;;21.37
34310;BMP280;61664;48.112;11.662;2022-08-19T00:41:44;95054.94;;;21.39
34310;BMP280;61664;48.112;11.662;2022-08-19T00:44:25;95055.72;;;21.39
34310;BMP280;61664;48.112;11.662;2022-08-19T00:46:56;95046.81;;;21.39
34310;BMP280;61664;48.112;11.662;2022-08-19T00:49:31;95043.38;;;21.31
34310;BMP280;61664;48.112;11.662;2022-08-19T00:52:08;95043.72;;;21.35
34310;BMP280;61664;48.112;11.662;2022-08-19T00:54:38;95024.88;;;21.37
34310;BMP280;61664;48.112;11.662;2022-08-19T00:57:15;95023.81;;;21.40
34310;BMP280;61664;48.112;11.662;2022-08-19T00:59:47;95025.25;;;21.41
34310;BMP280;61664;48.112;11.662;2022-08-19T01:02:30;95025.25;;;21.41
34310;BMP280;61664;48.112;11.662;2022-08-19T01:05:03;95025.59;;;21.37
34310;BMP280;61664;48.112;11.662;2022-08-19T01:07:31;95020.00;;;21.35
34310;BMP280;61664;48.112;11.662;2022-08-19T01:10:11;95022.00;;;21.35
34310;BMP280;61664;48.112;11.662;2022-08-19T01:12:39;95010.53;;;21.29
34310;BMP280;61664;48.112;11.662;2022-08-19T01:15:10;95000.75;;;21.18
34310;BMP280;61664;48.112;11.662;2022-08-19T01:17:40;95000.59;;;21.24
34310;BMP280;61664;48.112;11.662;2022-08-19T01:20:19;94996.81;;;21.19
34310;BMP280;61664;48.112;11.662;2022-08-19T01:22:50;95017.97;;;21.21
34310;BMP280;61664;48.112;11.662;2022-08-19T01:25:23;95020.88;;;21.15
34310;BMP280;61664;48.112;11.662;2022-08-19T01:27:52;95031.38;;;21.19
34310;BMP280;61664;48.112;11.662;2022-08-19T01:30:30;95039.72;;;21.21
34310;BMP280;61664;48.112;11.662;2022-08-19T01:32:58;95056.75;;;21.21
34310;BMP280;61664;48.112;11.662;2022-08-19T01:35:29;95063.81;;;21.24
34310;BMP280;61664;48.112;11.662;2022-08-19T01:38:05;95078.09;;;21.25
34310;BMP280;61664;48.112;11.662;2022-08-19T01:40:38;95065.44;;;21.27
34310;BMP280;61664;48.112;11.662;2022-08-19T01:43:06;95066.91;;;21.28
34310;BMP280;61664;48.112;11.662;2022-08-19T01:45:35;95066.38;;;21.30
34310;BMP280;61664;48.112;11.662;2022-08-19T01:48:03;95074.72;;;21.32
34310;BMP280;61664;48.112;11.662;2022-08-19T01:50:33;95069.63;;;21.36
34310;BMP280;61664;48.112;11.662;2022-08-19T01:53:04;95076.69;;;21.39
34310;BMP280;61664;48.112;11.662;2022-08-19T01:55:36;95093.75;;;21.39
34310;BMP280;61664;48.112;11.662;2022-08-19T01:58:14;95082.66;;;21.37
34310;BMP280;61664;48.112;11.662;2022-08-19T02:00:43;95070.19;;;21.42
34310;BMP280;61664;48.112;11.662;2022-08-19T02:03:10;95062.03;;;21.42
34310;BMP280;61664;48.112;11.662;2022-08-19T02:05:39;95070.91;;;21.42
34310;BMP280;61664;48.112;11.662;2022-08-19T02:08:08;95079.06;;;21.42
34310;BMP280;61664;48.112;11.662;2022-08-19T02:10:42;95071.81;;;21.45
34310;BMP280;61664;48.112;11.662;2022-08-19T02:13:11;95075.81;;;21.44
34310;BMP280;61664;48.112;11.662;2022-08-19T02:15:38;95091.94;;;21.42
34310;BMP280;61664;48.112;11.662;2022-08-19T02:18:06;95090.47;;;21.41
34310;BMP280;61664;48.112;11.662;2022-08-19T02:20:34;95087.94;;;21.43
34310;BMP280;61664;48.112;11.662;2022-08-19T02:23:02;95085.41;;;21.45
34310;BMP280;61664;48.112;11.662;2022-08-19T02:25:29;95091.56;;;21.45
34310;BMP280;61664;48.112;11.662;2022-08-19T02:30:23;95095.00;;;21.46
34310;BMP280;61664;48.112;11.662;2022-08-19T02:32:52;95094.47;;;21.48
34310;BMP280;61664;48.112;11.662;2022-08-19T02:35:19;95091.94;;;21.50
34310;BMP280;61664;48.112;11.662;2022-08-19T02:37:47;95082.88;;;21.55
34310;BMP280;61664;48.112;11.662;2022-08-19T02:40:33;95064.75;;;21.57
34310;BMP280;61664;48.112;11.662;2022-08-19T02:43:03;95048.81;;;21.61
34310;BMP280;61664;48.112;11.662;2022-08-19T02:45:36;95033.25;;;21.62
34310;BMP280;61664;48.112;11.662;2022-08-19T02:48:07;95035.44;;;21.63
34310;BMP280;61664;48.112;11.662;2022-08-19T02:50:50;95030.00;;;21.63
34310;BMP280;61664;48.112;11.662;2022-08-19T02:53:25;95020.00;;;21.58
34310;BMP280;61664;48.112;11.662;2022-08-19T02:55:53;95019.84;;;21.56
34310;BMP280;61664;48.112;11.662;2022-08-19T02:58:22;95030.69;;;21.49
34310;BMP280;61664;48.112;11.662;2022-08-19T03:00:55;95027.78;;;21.47
34310;BMP280;61664;48.112;11.662;2022-08-19T03:03:22;95033.59;;;21.43
34310;BMP280;61664;48.112;11.662;2022-08-19T03:05:49;95042.13;;;21.39
34310;BMP280;61664;48.112;11.662;2022-08-19T03:08:24;95043.19;;;21.36
34310;BMP280;61664;48.112;11.662;2022-08-19T03:10:52;95027.06;;;21.31
34310;BMP280;61664;48.112;11.662;2022-08-19T03:13:20;95023.59;;;21.23
34310;BMP280;61664;48.112;11.662;2022-08-19T03:15:47;95042.09;;;21.24
34310;BMP280;61664;48.112;11.662;2022-08-19T03:18:16;95031.75;;;21.23
34310;BMP280;61664;48.112;11.662;2022-08-19T03:20:52;95038.28;;;21.20
34310;BMP280;61664;48.112;11.662;2022-08-19T03:23:23;95042.22;;;21.19
34310;BMP280;61664;48.112;11.662;2022-08-19T03:25:52;95050.56;;;21.21
34310;BMP280;61664;48.112;11.662;2022-08-19T03:28:41;95033.72;;;21.15
34310;BMP280;61664;48.112;11.662;2022-08-19T03:31:20;95050.78;;;21.23
34310;BMP280;61664;48.112;11.662;2022-08-19T03:34:11;95050.94;;;21.25
34310;BMP280;61664;48.112;11.662;2022-08-19T03:36:39;95056.72;;;21.29
34310;BMP280;61664;48.112;11.662;2022-08-19T03:39:06;95047.34;;;21.30
34310;BMP280;61664;48.112;11.662;2022-08-19T03:41:41;95039.91;;;21.30
34310;BMP280;61664;48.112;11.662;2022-08-19T03:44:19;95056.22;;;21.38
34310;BMP280;61664;48.112;11.662;2022-08-19T03:46:54;95057.31;;;21.35
34310;BMP280;61664;48.112;11.662;2022-08-19T03:49:28;95056.22;;;21.38
34310;BMP280;61664;48.112;11.662;2022-08-19T03:51:57;95060.38;;;21.39
34310;BMP280;61664;48.112;11.662;2022-08-19T03:54:27;95058.06;;;21.43
34310;BMP280;61664;48.112;11.662;2022-08-19T03:56:56;95054.06;;;21.44
34310;BMP280;61664;48.112;11.662;2022-08-19T03:59:31;95054.97;;;21.47
34310;BMP280;61664;48.112;11.662;2022-08-19T04:02:02;95055.50;;;21.45
34310;BMP280;61664;48.112;11.662;2022-08-19T04:04:33;95056.81;;;21.52
34310;BMP280;61664;48.112;11.662;2022-08-19T04:07:00;95056.81;;;21.59
34310;BMP280;61664;48.112;11.662;2022-08-19T04:09:27;95051.75;;;21.63
34310;BMP280;61664;48.112;11.662;2022-08-19T04:11:57;95051.00;;;21.63
34310;BMP280;61664;48.112;11.662;2022-08-19T04:14:28;95052.28;;;21.62
34310;BMP280;61664;48.112;11.662;2022-08-19T04:16:59;95045.19;;;21.59
34310;BMP280;61664;48.112;11.662;2022-08-19T04:19:28;95050.28;;;21.62
34310;BMP280;61664;48.112;11.662;2022-08-19T04:21:55;95058.44;;;21.62
34310;BMP280;61664;48.112;11.662;2022-08-19T04:24:22;95055.91;;;21.64
34310;BMP280;61664;48.112;11.662;2022-08-19T04:26:50;95050.47;;;21.72
34310;BMP280;61664;48.112;11.662;2022-08-19T04:29:23;95048.31;;;21.70
34310;BMP280;61664;48.112;11.662;2022-08-19T04:31:54;95057.00;;;21.76
34310;BMP280;61664;48.112;11.662;2022-08-19T04:34:26;95064.09;;;21.79
34310;BMP280;61664;48.112;11.662;2022-08-19T04:36:55;95076.41;;;21.80
34310;BMP280;61664;48.112;11.662;2022-08-19T04:39:29;95075.31;;;21.83
34310;BMP280;61664;48.112;11.662;2022-08-19T04:42:17;95084.34;;;21.86
34310;BMP280;61664;48.112;11.662;2022-08-19T04:45:17;95091.63;;;21.83
34310;BMP280;61664;48.112;11.662;2022-08-19T04:47:48;95100.69;;;21.86
34310;BMP280;61664;48.112;11.662;2022-08-19T04:50:35;95109.38;;;21.84
34310;BMP280;61664;48.112;11.662;2022-08-19T04:53:02;95102.16;;;21.79
34310;BMP280;61664;48.112;11.662;2022-08-19T04:55:31;95096.13;;;21.73
34310;BMP280;61664;48.112;11.662;2022-08-19T04:58:03;95102.31;;;21.81
34310;BMP280;61664;48.112;11.662;2022-08-19T05:00:30;95104.31;;;21.81
34310;BMP280;61664;48.112;11.662;2022-08-19T05:03:01;95099.22;;;21.77
34310;BMP280;61664;48.112;11.662;2022-08-19T05:05:33;95108.47;;;21.74
34310;BMP280;61664;48.112;11.662;2022-08-19T05:08:12;95110.81;;;21.70
34310;BMP280;61664;48.112;11.662;2022-08-19T05:10:41;95121.34;;;21.74
34310;BMP280;61664;48.112;11.662;2022-08-19T05:13:08;95117.00;;;21.71
34310;BMP280;61664;48.112;11.662;2022-08-19T05:15:37;95122.78;;;21.75
34310;BMP280;61664;48.112;11.662;2022-08-19T05:18:04;95109.56;;;21.71
34310;BMP280;61664;48.112;11.662;2022-08-19T05:20:50;95102.88;;;21.72
34310;BMP280;61664;48.112;11.662;2022-08-19T05:23:35;95116.63;;;21.74
34310;BMP280;61664;48.112;11.662;2022-08-19T05:26:02;95112.81;;;21.77
34310;BMP280;61664;48.112;11.662;2022-08-19T05:28:30;95104.66;;;21.77
34310;BMP280;61664;48.112;11.662;2022-08-19T05:30:57;95097.44;;;21.72
34310;BMP280;61664;48.112;11.662;2022-08-19T05:33:24;95102.50;;;21.83
34310;BMP280;61664;48.112;11.662;2022-08-19T05:35:50;95104.28;;;21.89
34310;BMP280;61664;48.112;11.662;2022-08-19T05:38:18;95105.38;;;21.85
34310;BMP280;61664;48.112;11.662;2022-08-19T05:40:45;95100.13;;;21.88
34310;BMP280;61664;48.112;11.662;2022-08-19T05:43:15;95091.78;;;21.85
34310;BMP280;61664;48.112;11.662;2022-08-19T05:45:43;95092.34;;;21.92
34310;BMP280;61664;48.112;11.662;2022-08-19T05:48:12;95099.41;;;21.95
34310;BMP280;61664;48.112;11.662;2022-08-19T05:50:41;95088.69;;;21.97
34310;BMP280;61664;48.112;11.662;2022-08-19T05:53:08;95097.78;;;22.07
34310;BMP280;61664;48.112;11.662;2022-08-19T05:55:36;95081.09;;;22.10
34310;BMP280;61664;48.112;11.662;2022-08-19T05:58:05;95086.16;;;22.14
34310;BMP280;61664;48.112;11.662;2022-08-19T06:00:36;95080.00;;;22.06
34310;BMP280;61664;48.112;11.662;2022-08-19T06:03:04;95089.63;;;22.14
34310;BMP280;61664;48.112;11.662;2022-08-19T06:05:38;95086.00;;;22.12
34310;BMP280;61664;48.112;11.662;2022-08-19T06:08:17;95081.84;;;22.03
34310;BMP280;61664;48.112;11.662;2022-08-19T06:10:44;95093.25;;;22.02
34310;BMP280;61664;48.112;11.662;2022-08-19T06:13:11;95092.16;;;21.90
34310;BMP280;61664;48.112;11.662;2022-08-19T06:15:38;95108.69;;;21.99
34310;BMP280;61664;48.112;11.662;2022-08-19T06:18:05;95116.47;;;21.95
34310;BMP280;61664;48.112;11.662;2022-08-19T06:20:32;95113.38;;;21.91
34310;BMP280;61664;48.112;11.662;2022-08-19T06:23:19;95116.09;;;21.91
34310;BMP280;61664;48.112;11.662;2022-08-19T06:25:50;95117.88;;;21.89
34310;BMP280;61664;48.112;11.662;2022-08-19T06:28:17;95113.53;;;21.85
34310;BMP280;61664;48.112;11.662;2022-08-19T06:30:44;95109.75;;;21.81
34310;BMP280;61664;48.112;11.662;2022-08-19T06:33:11;95103.75;;;21.75
34310;BMP280;61664;48.112;11.662;2022-08-19T06:35:40;95099.75;;;21.68
34310;BMP280;61664;48.112;11.662;2022-08-19T06:38:08;95099.22;;;21.62
34310;BMP280;61664;48.112;11.662;2022-08-19T06:40:36;95098.09;;;21.58
34310;BMP280;61664;48.112;11.662;2022-08-19T06:43:04;95099.72;;;21.53
34310;BMP280;61664;48.112;11.662;2022-08-19T06:45:37;95097.72;;;21.46
34310;BMP280;61664;48.112;11.662;2022-08-19T06:48:05;95104.25;;;21.43
34310;BMP280;61664;48.112;11.662;2022-08-19T06:50:33;95103.38;;;21.40
34310;BMP280;61664;48.112;11.662;2022-08-19T06:53:04;95099.91;;;21.40
34310;BMP280;61664;48.112;11.662;2022-08-19T06:55:32;95104.97;;;21.43
34310;BMP280;61664;48.112;11.662;2022-08-19T06:58:03;95110.59;;;21.53
34310;BMP280;61664;48.112;11.662;2022-08-19T07:00:31;95108.25;;;21.50
34310;BMP280;61664;48.112;11.662;2022-08-19T07:02:58;95109.88;;;21.53
34310;BMP280;61664;48.112;11.662;2022-08-19T07:05:30;95100.28;;;21.52
34310;BMP280;61664;48.112;11.662;2022-08-19T07:07:58;95093.41;;;21.58
34310;BMP280;61664;48.112;11.662;2022-08-19T07:10:30;95090.16;;;21.67
34310;BMP280;61664;48.112;11.662;2022-08-19T07:12:59;95093.03;;;21.77
34310;BMP280;61664;48.112;11.662;2022-08-19T07:15:26;95088.19;;;21.83
34310;BMP280;61664;48.112;11.662;2022-08-19T07:17:54;95075.47;;;21.85
34310;BMP280;61664;48.112;11.662;2022-08-19T07:20:22;95074.06;;;21.92
34310;BMP280;61664;48.112;11.662;2022-08-19T07:22:55;95073.09;;;22.05
34310;BMP280;61664;48.112;11.662;2022-08-19T07:25:22;95067.66;;;22.20
34310;BMP280;61664;48.112;11.662;2022-08-19T07:27:59;95057.09;;;22.39
34310;BMP280;61664;48.112;11.662;2022-08-19T07:30:27;95050.00;;;22.51
34310;BMP280;61664;48.112;11.662;2022-08-19T07:35:23;95036.66;;;22.71
34310;BMP280;61664;48.112;11.662;2022-08-19T07:37:50;95051.47;;;22.85
34310;BMP280;61664;48.112;11.662;2022-08-19T07:40:17;95059.22;;;23.03
34310;BMP280;61664;48.112;11.662;2022-08-19T07:42:44;95049.91;;;23.14
34310;BMP280;61664;48.112;11.662;2022-08-19T07:45:11;95065.81;;;23.25
34310;BMP280;61664;48.112;11.662;2022-08-19T07:47:38;95063.84;;;23.18
34310;BMP280;61664;48.112;11.662;2022-08-19T07:50:18;95071.69;;;23.14
34310;BMP280;61664;48.112;11.662;2022-08-19T07:52:48;95073.16;;;23.07
34310;BMP280;61664;48.112;11.662;2022-08-19T07:55:23;95072.63;;;23.09
34310;BMP280;61664;48.112;11.662;2022-08-19T07:58:13;95081.84;;;23.21
34310;BMP280;61664;48.112;11.662;2022-08-19T08:00:43;95079.59;;;23.27
34310;BMP280;61664;48.112;11.662;2022-08-19T08:03:11;95086.91;;;23.25
34310;BMP280;61664;48.112;11.662;2022-08-19T08:05:38;95077.69;;;23.13
34310;BMP280;61664;48.112;11.662;2022-08-19T08:08:24;95080.44;;;23.05
34310;BMP280;61664;48.112;11.662;2022-08-19T08:11:17;95084.47;;;22.96
34310;BMP280;61664;48.112;11.662;2022-08-19T08:13:46;95087.25;;;22.89
34310;BMP280;61664;48.112;11.662;2022-08-19T08:16:35;95086.41;;;22.79
34310;BMP280;61664;48.112;11.662;2022-08-19T08:19:14;95084.03;;;22.75
34310;BMP280;61664;48.112;11.662;2022-08-19T08:21:54;95092.03;;;22.73
34310;BMP280;61664;48.112;11.662;2022-08-19T08:24:21;95081.69;;;22.72
34310;BMP280;61664;48.112;11.662;2022-08-19T08:26:55;95086.22;;;22.77
34310;BMP280;61664;48.112;11.662;2022-08-19T08:29:24;95075.72;;;22.65
34310;BMP280;61664;48.112;11.662;2022-08-19T08:32:00;95093.84;;;22.71
34310;BMP280;61664;48.112;11.662;2022-08-19T08:34:27;95105.31;;;22.69
34310;BMP280;61664;48.112;11.662;2022-08-19T08:36:54;95100.94;;;22.66
34310;BMP280;61664;48.112;11.662;2022-08-19T08:39:21;95109.66;;;22.64
34310;BMP280;61664;48.112;11.662;2022-08-19T08:42:21;95096.28;;;22.51
34310;BMP280;61664;48.112;11.662;2022-08-19T08:44:58;95102.09;;;22.40
34310;BMP280;61664;48.112;11.662;2022-08-19T08:47:35;95116.59;;;22.35
34310;BMP280;61664;48.112;11.662;2022-08-19T08:50:20;95130.59;;;22.16
34310;BMP280;61664;48.112;11.662;2022-08-19T08:52:56;95104.66;;;21.85
34310;BMP280;61664;48.112;11.662;2022-08-19T08:55:27;95119.88;;;21.73
34310;BMP280;61664;48.112;11.662;2022-08-19T08:58:06;95121.84;;;21.57
34310;BMP280;61664;48.112;11.662;2022-08-19T09:00:47;95135.41;;;21.42
34310;BMP280;61664;48.112;11.662;2022-08-19T09:03:25;95124.66;;;21.29
34310;BMP280;61664;48.112;11.662;2022-08-19T09:14:48;95136.75;;;21.13
34310;BMP280;61664;48.112;11.662;2022-08-19T09:17:27;95123.00;;;21.11
34310;BMP280;61664;48.112;11.662;2022-08-19T09:20:15;95125.59;;;21.24
34310;BMP280;61664;48.112;11.662;2022-08-19T09:22:44;95120.72;;;21.30
34310;BMP280;61664;48.112;11.662;2022-08-19T09:25:17;95126.13;;;21.37
34310;BMP280;61664;48.112;11.662;2022-08-19T09:27:55;95122.69;;;21.37
34310;BMP280;61664;48.112;11.662;2022-08-19T09:30:39;95124.72;;;21.44
34310;BMP280;61664;48.112;11.662;2022-08-19T09:33:07;95119.31;;;21.52
34310;BMP280;61664;48.112;11.662;2022-08-19T09:35:34;95121.50;;;21.61
34310;BMP280;61664;48.112;11.662;2022-08-19T09:38:21;95123.16;;;21.64
34310;BMP280;61664;48.112;11.662;2022-08-19T09:40:49;95121.72;;;21.70
34310;BMP280;61664;48.112;11.662;2022-08-19T09:43:17;95119.91;;;21.80
34310;BMP280;61664;48.112;11.662;2022-08-19T09:46:01;95110.47;;;21.97
34310;BMP280;61664;48.112;11.662;2022-08-19T09:48:28;95103.03;;;22.12
34310;BMP280;61664;48.112;11.662;2022-08-19T09:50:55;95109.72;;;22.34
34310;BMP280;61664;48.112;11.662;2022-08-19T09:53:22;95115.13;;;22.57
34310;BMP280;61664;48.112;11.662;2022-08-19T09:55:52;95113.28;;;22.67
34310;BMP280;61664;48.112;11.662;2022-08-19T09:58:21;95126.00;;;22.72
34310;BMP280;61664;48.112;11.662;2022-08-19T10:00:52;95135.44;;;22.71
34310;BMP280;61664;48.112;11.662;2022-08-19T10:03:20;95123.03;;;22.78
34310;BMP280;61664;48.112;11.662;2022-08-19T10:05:51;95122.66;;;22.89
34310;BMP280;61664;48.112;11.662;2022-08-19T10:08:30;95118.28;;;22.93
34310;BMP280;61664;48.112;11.662;2022-08-19T10:11:00;95131.34;;;23.02
34310;BMP280;61664;48.112;11.662;2022-08-19T10:13:48;95124.78;;;22.98
34310;BMP280;61664;48.112;11.662;2022-08-19T10:16:19;95128.44;;;23.00
34310;BMP280;61664;48.112;11.662;2022-08-19T10:18:47;95131.88;;;23.01
34310;BMP280;61664;48.112;11.662;2022-08-19T10:21:23;95134.19;;;23.12
34310;BMP280;61664;48.112;11.662;2022-08-19T10:23:54;95133.75;;;23.31
34310;BMP280;61664;48.112;11.662;2022-08-19T10:26:33;95123.75;;;23.58
34310;BMP280;61664;48.112;11.662;2022-08-19T10:29:02;95098.66;;;23.60
34310;BMP280;61664;48.112;11.662;2022-08-19T10:31:33;95110.97;;;23.68
34310;BMP280;61664;48.112;11.662;2022-08-19T10:34:20;95103.22;;;23.82
34310;BMP280;61664;48.112;11.662;2022-08-19T10:36:53;95107.38;;;24.08
34310;BMP280;61664;48.112;11.662;2022-08-19T10:39:26;95113.78;;;24.45
34310;BMP280;61664;48.112;11.662;2022-08-19T10:41:56;95111.75;;;24.62
34310;BMP280;61664;48.112;11.662;2022-08-19T10:44:24;95114.78;;;25.01
34310;BMP280;61664;48.112;11.662;2022-08-19T10:46:58;95122.16;;;25.71
34310;BMP280;61664;48.112;11.662;2022-08-19T10:49:25;95121.06;;;26.03
34310;BMP280;61664;48.112;11.662;2022-08-19T10:51:55;95118.41;;;26.51
34310;BMP280;61664;48.112;11.662;2022-08-19T10:54:46;95113.84;;;27.04
34310;BMP280;61664;48.112;11.662;2022-08-19T10:57:34;95111.75;;;27.33
34310;BMP280;61664;48.112;11.662;2022-08-19T11:00:23;95115.88;;;26.94
34310;BMP280;61664;48.112;11.662;2022-08-19T11:02:51;95119.09;;;26.71
34310;BMP280;61664;48.112;11.662;2022-08-19T11:05:18;95111.16;;;26.46
34310;BMP280;61664;48.112;11.662;2022-08-19T11:07:50;95101.94;;;26.32
34310;BMP280;61664;48.112;11.662;2022-08-19T11:10:19;95093.56;;;26.11
34310;BMP280;61664;48.112;11.662;2022-08-19T11:12:48;95094.22;;;25.82
34310;BMP280;61664;48.112;11.662;2022-08-19T11:15:15;95075.47;;;25.59
34310;BMP280;61664;48.112;11.662;2022-08-19T11:17:42;95095.19;;;25.58
34310;BMP280;61664;48.112;11.662;2022-08-19T11:20:14;95086.41;;;25.59
34310;BMP280;61664;48.112;11.662;2022-08-19T11:22:42;95087.94;;;25.53
34310;BMP280;61664;48.112;11.662;2022-08-19T11:25:10;95086.47;;;25.42
34310;BMP280;61664;48.112;11.662;2022-08-19T11:27:40;95097.06;;;25.65
34310;BMP280;61664;48.112;11.662;2022-08-19T11:30:13;95097.66;;;25.73
34310;BMP280;61664;48.112;11.662;2022-08-19T11:32:41;95082.09;;;25.66
34310;BMP280;61664;48.112;11.662;2022-08-19T11:35:15;95100.84;;;25.79
34310;BMP280;61664;48.112;11.662;2022-08-19T11:37:42;95099.56;;;25.80
34310;BMP280;61664;48.112;11.662;2022-08-19T11:40:10;95088.91;;;25.75
34310;BMP280;61664;48.112;11.662;2022-08-19T11:42:37;95096.41;;;25.84
34310;BMP280;61664;48.112;11.662;2022-08-19T11:45:26;95090.19;;;25.83
34310;BMP280;61664;48.112;11.662;2022-08-19T11:47:53;95091.47;;;25.73
34310;BMP280;61664;48.112;11.662;2022-08-19T11:50:21;95093.00;;;25.56
34310;BMP280;61664;48.112;11.662;2022-08-19T11:52:53;95093.81;;;25.40
34310;BMP280;61664;48.112;11.662;2022-08-19T11:55:20;95084.53;;;25.26
34310;BMP280;61664;48.112;11.662;2022-08-19T11:57:47;95086.81;;;25.20
34310;BMP280;61664;48.112;11.662;2022-08-19T12:00:17;95090.66;;;25.16
34310;BMP280;61664;48.112;11.662;2022-08-19T12:02:45;95093.59;;;25.01
34310;BMP280;61664;48.112;11.662;2022-08-19T12:05:11;95103.28;;;24.85
34310;BMP280;61664;48.112;11.662;2022-08-19T12:07:41;95098.66;;;24.78
34310;BMP280;61664;48.112;11.662;2022-08-19T12:10:10;95102.63;;;24.77
34310;BMP280;61664;48.112;11.662;2022-08-19T12:12:37;95099.13;;;24.67
34310;BMP280;61664;48.112;11.662;2022-08-19T12:15:10;95104.06;;;24.68
34310;BMP280;61664;48.112;11.662;2022-08-19T12:17:38;95099.13;;;24.67
34310;BMP280;61664;48.112;11.662;2022-08-19T12:20:06;95093.50;;;24.65
34310;BMP280;61664;48.112;11.662;2022-08-19T12:22:35;95112.69;;;24.74
34310;BMP280;61664;48.112;11.662;2022-08-19T12:25:03;95116.22;;;24.67
34310;BMP280;61664;48.112;11.662;2022-08-19T12:27:31;95100.34;;;24.56
34310;BMP280;61664;48.112;11.662;2022-08-19T12:30:11;95112.69;;;24.57
34310;BMP280;61664;48.112;11.662;2022-08-19T12:32:39;95115.13;;;24.53
34310;BMP280;61664;48.112;11.662;2022-08-19T12:35:07;95125.19;;;24.51
34310;BMP280;61664;48.112;11.662;2022-08-19T12:37:35;95123.00;;;24.49
34310;BMP280;61664;48.112;11.662;2022-08-19T12:40:04;95125.84;;;24.59
34310;BMP280;61664;48.112;11.662;2022-08-19T12:42:31;95130.88;;;24.62
34310;BMP280;61664;48.112;11.662;2022-08-19T12:44:58;95119.72;;;24.51
34310;BMP280;61664;48.112;11.662;2022-08-19T12:47:25;95119.78;;;24.43
34310;BMP280;61664;48.112;11.662;2022-08-19T12:49:53;95117.06;;;24.43
34310;BMP280;61664;48.112;11.662;2022-08-19T12:52:24;95132.66;;;24.50
34310;BMP280;61664;48.112;11.662;2022-08-19T12:54:55;95138.00;;;24.58
34310;BMP280;61664;48.112;11.662;2022-08-19T12:57:26;95132.53;;;24.58
34310;BMP280;61664;48.112;11.662;2022-08-19T13:00:16;95129.81;;;24.58
34310;BMP280;61664;48.112;11.662;2022-08-19T13:02:47;95138.84;;;24.68
34310;BMP280;61664;48.112;11.662;2022-08-19T13:05:23;95132.16;;;24.79
34310;BMP280;61664;48.112;11.662;2022-08-19T13:07:54;95132.06;;;24.86
34310;BMP280;61664;48.112;11.662;2022-08-19T13:10:34;95120.31;;;24.93
34310;BMP280;61664;48.112;11.662;2022-08-19T13:13:06;95119.56;;;25.10
34310;BMP280;61664;48.112;11.662;2022-08-19T13:15:36;95125.09;;;25.20
34310;BMP280;61664;48.112;11.662;2022-08-19T13:18:03;95121.97;;;25.33
34310;BMP280;61664;48.112;11.662;2022-08-19T13:20:30;95128.03;;;25.58
34310;BMP280;61664;48.112;11.662;2022-08-19T13:22:57;95122.34;;;25.92
34310;BMP280;61664;48.112;11.662;2022-08-19T13:25:24;95119.09;;;26.32
34310;BMP280;61664;48.112;11.662;2022-08-19T13:27:52;95114.78;;;26.68
34310;BMP280;61664;48.112;11.662;2022-08-19T13:30:21;95114.72;;;26.97
34310;BMP280;61664;48.112;11.662;2022-08-19T13:33:09;95126.34;;;27.26
34310;BMP280;61664;48.112;11.662;2022-08-19T13:35:50;95114.88;;;27.49
34310;BMP280;61664;48.112;11.662;2022-08-19T13:38:21;95122.09;;;27.75
34310;BMP280;61664;48.112;11.662;2022-08-19T13:40:51;95107.66;;;27.96
34310;BMP280;61664;48.112;11.662;2022-08-19T13:43:22;95107.03;;;28.07
34310;BMP280;61664;48.112;11.662;2022-08-19T13:45:53;95105.50;;;27.94
34310;BMP280;61664;48.112;11.662;2022-08-19T13:48:23;95113.19;;;28.17
34310;BMP280;61664;48.112;11.662;2022-08-19T13:50:50;95104.78;;;28.36
34310;BMP280;61664;48.112;11.662;2022-08-19T13:53:17;95108.41;;;28.95
34310;BMP280;61664;48.112;11.662;2022-08-19T13:55:45;95104.94;;;29.64
34310;BMP280;61664;48.112;11.662;2022-08-19T13:58:13;95109.28;;;30.16
34310;BMP280;61664;48.112;11.662;2022-08-19T14:00:44;95105.19;;;29.80
34310;BMP280;61664;48.112;11.662;2022-08-19T14:03:12;95116.34;;;29.58
34310;BMP280;61664;48.112;11.662;2022-08-19T14:05:39;95112.34;;;29.85
34310;BMP280;61664;48.112;11.662;2022-08-19T14:08:06;95116.28;;;30.81
34310;BMP280;61664;48.112;11.662;2022-08-19T14:10:33;95119.63;;;31.73
34310;BMP280;61664;48.112;11.662;2022-08-19T14:13:03;95114.66;;;31.56
34310;BMP280;61664;48.112;11.662;2022-08-19T14:15:31;95124.09;;;30.98
34310;BMP280;61664;48.112;11.662;2022-08-19T14:17:58;95128.38;;;31.01
34310;BMP280;61664;48.112;11.662;2022-08-19T14:20:26;95113.31;;;31.29
34310;BMP280;61664;48.112;11.662;2022-08-19T14:22:54;95126.59;;;31.19
34310;BMP280;61664;48.112;11.662;2022-08-19T14:25:25;95124.94;;;30.75
34310;BMP280;61664;48.112;11.662;2022-08-19T14:27:53;95122.78;;;30.74
34310;BMP280;61664;48.112;11.662;2022-08-19T14:30:25;95127.31;;;31.61
34310;BMP280;61664;48.112;11.662;2022-08-19T14:32:58;95126.00;;;32.47
34310;BMP280;61664;48.112;11.662;2022-08-19T14:35:26;95130.84;;;32.94